Time;durP1;ratioP1;P1;durP2;ratioP2;P2;SDS_P1;SDS_P2;PMS_P1;PMS_P2;Temp;Humidity;BMP_temperature;BMP_pressure;BME280_temperature;BME280_humidity;BME280_pressure;Samples;Min_cycle;Max_cycle;Signal;HPM_P1;HPM_P2
2022/08/20 00:00:35;;;;;;;1.40;1.30;;;;;;;24.06;52.79;97397.53;5031707;28;20780;-70
2022/08/20 00:03:18;;;;;;;1.30;1.20;;;;;;;24.00;53.06;97393.13;5030899;28;20211;-71
2022/08/20 00:05:53;;;;;;;1.30;1.20;;;;;;;23.99;53.33;97402.22;5024881;28;20862;-71
2022/08/20 00:08:19;;;;;;;1.63;1.43;;;;;;;23.96;53.25;97398.13;5030257;28;20426;-71
2022/08/20 00:10:46;;;;;;;1.57;1.47;;;;;;;23.89;53.28;97395.53;5046015;28;20430;-70
2022/08/20 00:13:16;;;;;;;3.43;1.10;;;;;;;23.89;53.52;97394.72;5042412;28;20512;-72
2022/08/20 00:15:42;;;;;;;5.50;1.80;;;;;;;23.88;53.59;97393.91;5034721;28;20936;-71
2022/08/20 00:18:07;;;;;;;3.33;1.47;;;;;;;23.80;53.66;97394.25;5030356;28;20459;-70
2022/08/20 00:20:36;;;;;;;1.67;1.57;;;;;;;23.75;53.86;97392.28;5033892;28;20179;-70
2022/08/20 00:23:02;;;;;;;1.60;1.50;;;;;;;23.67;54.30;97387.28;5043368;28;20916;-71
2022/08/20 00:25:28;;;;;;;1.30;1.20;;;;;;;23.63;54.46;97394.16;5031662;28;20422;-70
2022/08/20 00:27:56;;;;;;;1.57;1.40;;;;;;;23.57;54.63;97389.72;5031622;28;20191;-71
2022/08/20 00:30:22;;;;;;;1.50;1.40;;;;;;;23.56;54.66;97388.09;5031517;28;20191;-71
2022/08/20 00:32:51;;;;;;;2.20;1.30;;;;;;;23.53;54.57;97397.38;5031697;28;20457;-71
2022/08/20 00:35:19;;;;;;;1.50;1.33;;;;;;;23.53;54.60;97393.91;5029790;28;20830;-70
2022/08/20 00:37:44;;;;;;;2.47;1.20;;;;;;;23.50;54.97;97402.38;5030919;28;20446;-71
2022/08/20 00:40:13;;;;;;;1.50;1.30;;;;;;;23.47;55.05;97399.13;5030007;28;20472;-71
2022/08/20 00:42:46;;;;;;;1.53;1.30;;;;;;;23.47;55.07;97399.13;5031636;28;20214;-71
2022/08/20 00:45:13;;;;;;;1.57;1.27;;;;;;;23.46;55.19;97394.03;5037742;28;20503;-71
2022/08/20 00:47:42;;;;;;;2.20;1.07;;;;;;;23.45;55.10;97397.75;5030593;28;20496;-71
2022/08/20 00:50:14;;;;;;;1.93;1.20;;;;;;;23.44;55.23;97402.25;5031347;28;20457;-71
2022/08/20 00:52:41;;;;;;;2.43;1.20;;;;;;;23.42;55.68;97404.38;5030960;28;20438;-71
2022/08/20 00:55:08;;;;;;;4.43;1.40;;;;;;;23.41;55.25;97397.38;5031125;28;20497;-71
2022/08/20 00:57:38;;;;;;;2.70;1.50;;;;;;;23.41;55.26;97397.38;5028935;28;20971;-70
2022/08/20 01:00:12;;;;;;;1.30;1.20;;;;;;;23.41;55.45;97397.38;5029309;28;20884;-70
2022/08/20 01:02:38;;;;;;;1.70;1.40;;;;;;;23.41;55.23;97397.38;5024107;28;20815;-70
2022/08/20 01:05:05;;;;;;;1.20;1.10;;;;;;;23.39;55.29;97398.66;5030883;28;20449;-70
2022/08/20 01:07:36;;;;;;;3.10;1.50;;;;;;;23.40;55.26;97405.63;5026510;28;20418;-70
2022/08/20 01:10:06;;;;;;;3.33;1.30;;;;;;;23.40;55.56;97403.78;5031076;28;20426;-70
2022/08/20 01:12:32;;;;;;;1.33;1.10;;;;;;;23.44;55.64;97410.28;5022597;28;20449;-70
2022/08/20 01:14:59;;;;;;;2.27;1.87;;;;;;;23.44;55.34;97404.94;5029444;28;20425;-70
2022/08/20 01:17:28;;;;;;;1.67;1.10;;;;;;;23.40;55.45;97409.13;5024229;28;20206;-70
2022/08/20 01:20:11;;;;;;;3.07;1.60;;;;;;;23.40;55.66;97411.81;5030566;28;20473;-71
2022/08/20 01:25:48;;;;;;;1.53;1.17;;;;;;;23.38;55.98;97415.72;5007798;28;20419;-70
2022/08/20 01:28:17;;;;;;;1.40;1.30;;;;;;;23.37;55.81;97417.59;5037110;28;20446;-70
2022/08/20 01:30:43;;;;;;;3.03;1.50;;;;;;;23.35;55.96;97419.69;5029364;28;21128;-71
2022/08/20 01:33:09;;;;;;;2.17;1.57;;;;;;;23.37;55.71;97419.47;5030051;28;20458;-71
2022/08/20 01:35:38;;;;;;;1.97;1.37;;;;;;;23.30;56.13;97424.94;5030905;28;20184;-69
2022/08/20 01:38:04;;;;;;;1.77;1.33;;;;;;;23.30;55.88;97422.25;5029926;28;20606;-71
2022/08/20 01:40:46;;;;;;;1.53;1.30;;;;;;;23.29;56.18;97428.63;5030384;28;20477;-71
2022/08/20 01:43:12;;;;;;;1.87;1.10;;;;;;;23.29;56.20;97429.44;5029318;28;20442;-71
2022/08/20 01:45:38;;;;;;;3.13;1.20;;;;;;;23.28;56.14;97430.47;5040700;28;20427;-70
2022/08/20 01:48:04;;;;;;;1.53;1.20;;;;;;;23.28;56.24;97429.69;5030489;28;20270;-71
2022/08/20 01:50:31;;;;;;;2.90;1.30;;;;;;;23.28;56.30;97432.34;5029071;28;20461;-70
2022/08/20 01:53:03;;;;;;;1.30;1.20;;;;;;;23.29;56.22;97431.31;5029250;28;20946;-70
2022/08/20 01:55:30;;;;;;;1.20;1.10;;;;;;;23.32;56.18;97433.50;5030485;28;20783;-71
2022/08/20 01:57:55;;;;;;;6.10;1.43;;;;;;;23.31;56.26;97429.22;5036102;28;20545;-70
2022/08/20 02:00:22;;;;;;;1.53;1.43;;;;;;;23.33;56.06;97427.13;5029214;28;20434;-70
2022/08/20 02:02:48;;;;;;;1.87;1.30;;;;;;;23.32;56.12;97436.19;5030396;28;20247;-70
2022/08/20 02:05:13;;;;;;;1.20;1.10;;;;;;;23.33;56.17;97429.00;5029602;28;20422;-70
2022/08/20 02:07:39;;;;;;;1.30;1.20;;;;;;;23.36;56.08;97433.88;5037492;28;20492;-71
2022/08/20 02:10:10;;;;;;;1.70;1.17;;;;;;;23.34;56.10;97433.28;5038497;28;20187;-70
2022/08/20 02:12:36;;;;;;;2.73;1.10;;;;;;;23.34;56.25;97431.44;5038591;28;20200;-70
2022/08/20 02:15:02;;;;;;;1.83;1.40;;;;;;;23.32;56.49;97433.50;5030404;28;20484;-71
2022/08/20 02:17:29;;;;;;;3.00;1.40;;;;;;;23.33;56.56;97435.13;5028699;28;20211;-70
2022/08/20 02:19:58;;;;;;;1.73;1.10;;;;;;;23.30;56.37;97439.09;5030386;28;20477;-71
2022/08/20 02:22:44;;;;;;;2.00;1.20;;;;;;;23.30;56.57;97435.63;5038357;28;20911;-70
2022/08/20 02:25:11;;;;;;;1.93;1.50;;;;;;;23.27;56.53;97434.19;5029302;28;20973;-71
2022/08/20 02:27:40;;;;;;;2.40;1.40;;;;;;;23.27;56.64;97436.88;5021305;28;20426;-70
2022/08/20 02:30:10;;;;;;;1.50;1.40;;;;;;;23.28;56.68;97443.03;5031510;28;20764;-70
2022/08/20 02:32:37;;;;;;;1.60;1.47;;;;;;;23.28;56.76;97446.53;5038316;28;20469;-71
2022/08/20 02:35:09;;;;;;;1.40;1.30;;;;;;;23.29;56.49;97444.69;5037482;28;20427;-70
2022/08/20 02:37:35;;;;;;;1.97;1.40;;;;;;;23.28;56.56;97445.72;5031205;28;20449;-70
2022/08/20 02:40:03;;;;;;;1.67;1.57;;;;;;;23.27;56.62;97449.44;5033830;28;20473;-71
2022/08/20 02:42:28;;;;;;;6.30;1.30;;;;;;;23.29;56.59;97447.34;5043237;28;20449;-70
2022/08/20 02:44:54;;;;;;;1.40;1.30;;;;;;;23.27;56.61;97438.75;5043395;28;20429;-70
2022/08/20 02:47:20;;;;;;;2.53;1.43;;;;;;;23.26;56.76;97445.94;5033818;28;20582;-70
2022/08/20 02:49:45;;;;;;;1.33;1.23;;;;;;;23.21;56.78;97445.81;5033781;28;20429;-70
2022/08/20 02:52:11;;;;;;;3.30;1.30;;;;;;;23.17;57.00;97450.78;5033245;28;20743;-70
2022/08/20 02:54:36;;;;;;;1.40;1.30;;;;;;;23.20;57.14;97449.53;5033163;28;20188;-70
2022/08/20 02:57:03;;;;;;;1.93;1.73;;;;;;;23.20;57.12;97441.50;5031499;28;20184;-70
2022/08/20 02:59:28;;;;;;;1.20;1.10;;;;;;;23.21;56.97;97445.81;5032778;28;20362;-70
2022/08/20 03:01:54;;;;;;;2.73;1.80;;;;;;;23.23;57.19;97437.56;5033109;28;20521;-70
2022/08/20 03:04:19;;;;;;;1.40;1.30;;;;;;;23.27;57.16;97438.75;5032960;28;20286;-69
2022/08/20 03:06:44;;;;;;;1.47;1.37;;;;;;;23.25;56.99;97438.16;5026104;28;20517;-71
2022/08/20 03:09:10;;;;;;;2.70;1.60;;;;;;;23.25;57.07;97433.59;5037845;28;20187;-70
2022/08/20 03:11:38;;;;;;;2.47;1.50;;;;;;;23.22;57.21;97434.09;5030028;28;20216;-69
2022/08/20 03:14:05;;;;;;;2.73;1.50;;;;;;;23.23;57.26;97427.69;5026463;28;20287;-69
2022/08/20 03:16:30;;;;;;;1.40;1.30;;;;;;;23.23;57.09;97429.53;5032129;28;20976;-71
2022/08/20 03:18:56;;;;;;;2.97;1.57;;;;;;;23.24;57.22;97425.81;5048480;28;20465;-71
2022/08/20 03:21:21;;;;;;;1.70;1.57;;;;;;;23.24;57.33;97425.81;5052934;28;20233;-71
2022/08/20 03:23:47;;;;;;;1.70;1.60;;;;;;;23.23;57.20;97421.53;5053232;28;20199;-71
2022/08/20 03:26:13;;;;;;;1.60;1.50;;;;;;;23.19;57.36;97426.47;5043251;28;20188;-71
2022/08/20 03:28:40;;;;;;;2.17;1.70;;;;;;;23.22;57.18;97435.94;5051663;28;20175;-71
2022/08/20 03:31:06;;;;;;;3.53;1.50;;;;;;;23.17;57.34;97444.59;5053159;28;20521;-71
2022/08/20 03:33:32;;;;;;;1.60;1.50;;;;;;;23.14;57.49;97429.84;5037110;28;20597;-71
2022/08/20 03:35:57;;;;;;;1.73;1.63;;;;;;;23.11;57.58;97435.63;5037038;28;21378;-70
2022/08/20 03:38:24;;;;;;;2.47;1.90;;;;;;;23.11;57.54;97437.50;5036045;28;20220;-71
2022/08/20 03:40:50;;;;;;;1.80;1.70;;;;;;;23.08;57.72;97429.94;5033769;28;20683;-70
2022/08/20 03:43:15;;;;;;;1.83;1.73;;;;;;;23.05;57.80;97436.56;5038676;28;20481;-71
2022/08/20 03:45:42;;;;;;;5.00;1.93;;;;;;;23.02;57.80;97437.81;5044072;28;20858;-71
2022/08/20 03:48:10;;;;;;;1.70;1.60;;;;;;;23.02;57.92;97437.81;5030070;28;20188;-70
2022/08/20 03:50:36;;;;;;;1.70;1.60;;;;;;;23.04;57.97;97447.47;5030696;28;20423;-70
2022/08/20 03:53:02;;;;;;;2.43;2.00;;;;;;;23.02;57.81;97443.16;5023202;28;20515;-70
2022/08/20 03:55:30;;;;;;;2.00;1.90;;;;;;;23.02;58.06;97447.69;5040006;28;20989;-70
2022/08/20 03:58:01;;;;;;;2.00;1.80;;;;;;;23.01;58.05;97448.72;5013016;28;20454;-70
2022/08/20 04:00:35;;;;;;;2.90;1.67;;;;;;;22.99;58.21;97443.63;5031959;28;20488;-70
2022/08/20 04:03:01;;;;;;;1.70;1.60;;;;;;;23.00;58.00;97437.22;5036350;28;20819;-70
2022/08/20 04:05:29;;;;;;;2.00;1.90;;;;;;;22.98;58.19;97441.16;5032068;28;20430;-70
2022/08/20 04:07:56;;;;;;;1.80;1.70;;;;;;;22.97;58.26;97437.69;5032676;28;20194;-70
2022/08/20 04:10:23;;;;;;;3.53;1.73;;;;;;;22.94;58.24;97439.97;5028989;28;20517;-70
2022/08/20 04:12:49;;;;;;;1.90;1.70;;;;;;;22.95;58.42;97442.44;5036958;28;20443;-71
2022/08/20 04:15:15;;;;;;;5.30;2.30;;;;;;;22.94;58.43;97439.97;5027868;28;20438;-70
2022/08/20 04:17:46;;;;;;;2.70;2.17;;;;;;;22.92;58.42;97442.09;5038962;28;20643;-71
2022/08/20 04:20:15;;;;;;;2.80;1.83;;;;;;;22.95;58.47;97441.63;5031284;28;20465;-71
2022/08/20 04:22:40;;;;;;;2.40;2.20;;;;;;;22.96;58.28;97440.56;5037040;28;20531;-70
2022/08/20 04:25:09;;;;;;;3.07;2.77;;;;;;;22.92;58.50;97436.75;5036919;28;20482;-71
2022/08/20 04:27:36;;;;;;;2.90;2.20;;;;;;;22.92;58.31;97437.53;5029700;28;20184;-70
2022/08/20 04:30:04;;;;;;;2.20;2.00;;;;;;;22.94;58.66;97450.66;5031447;28;20425;-71
2022/08/20 04:32:29;;;;;;;2.60;2.40;;;;;;;22.95;58.91;97452.31;5020738;28;20453;-70
2022/08/20 04:34:55;;;;;;;2.57;2.37;;;;;;;22.96;58.66;97461.94;5039032;28;20423;-70
2022/08/20 04:37:21;;;;;;;2.20;2.10;;;;;;;22.95;58.71;97463.00;5033721;28;20281;-70
2022/08/20 04:40:52;;;;;;;2.43;2.27;;;;;;;22.94;58.59;97461.34;5031282;28;20270;-70
2022/08/20 04:42:37;;;;;;;2.93;2.63;;;;;;;;;;5027328;28;20603;-71
2022/08/20 04:45:05;;;;;;;2.43;2.23;;;;;;;22.96;58.68;97461.94;5041297;28;20473;-70
2022/08/20 04:47:31;;;;;;;7.30;2.67;;;;;;;22.97;58.70;97476.94;5022657;28;20502;-70
2022/08/20 04:49:59;;;;;;;2.97;2.30;;;;;;;22.97;58.69;97479.63;5029955;28;20426;-71
2022/08/20 04:52:26;;;;;;;2.50;2.00;;;;;;;22.98;58.74;97478.56;5023469;28;20458;-70
2022/08/20 04:54:55;;;;;;;4.10;2.43;;;;;;;22.99;58.78;97480.22;5029750;28;20514;-70
2022/08/20 04:57:22;;;;;;;2.63;2.47;;;;;;;22.96;58.58;97480.66;5030184;28;20510;-71
2022/08/20 04:59:50;;;;;;;3.17;2.77;;;;;;;22.96;58.73;97469.97;5026040;28;20470;-71
2022/08/20 05:02:17;;;;;;;2.80;2.40;;;;;;;22.99;58.83;97477.53;5038430;28;20521;-72
2022/08/20 05:04:42;;;;;;;3.50;2.60;;;;;;;22.99;58.83;97481.03;5030702;28;20437;-71
2022/08/20 05:07:10;;;;;;;4.00;2.57;;;;;;;23.01;58.68;97478.13;5024662;28;20795;-70
2022/08/20 05:09:35;;;;;;;2.83;2.63;;;;;;;23.02;58.77;97474.41;5024355;28;20191;-70
2022/08/20 05:12:01;;;;;;;2.70;2.50;;;;;;;23.02;58.81;97482.44;5029801;28;20431;-71
2022/08/20 05:14:26;;;;;;;3.10;2.70;;;;;;;23.00;58.98;97481.84;5025776;28;20191;-71
2022/08/20 05:16:56;;;;;;;3.20;2.60;;;;;;;23.01;58.98;97486.16;5030216;28;20560;-71
2022/08/20 05:19:22;;;;;;;2.60;2.40;;;;;;;23.04;59.12;97487.53;5029608;28;20261;-70
2022/08/20 05:21:47;;;;;;;3.07;2.77;;;;;;;23.02;59.24;97479.75;5037893;28;20853;-71
2022/08/20 05:24:13;;;;;;;6.17;3.10;;;;;;;23.03;59.39;97489.41;5030323;28;20231;-70
2022/08/20 05:26:39;;;;;;;3.00;2.80;;;;;;;23.02;59.19;97485.91;5025518;28;20191;-70
2022/08/20 05:29:05;;;;;;;3.20;2.90;;;;;;;22.99;59.66;97498.91;5028944;28;20188;-70
2022/08/20 05:31:32;;;;;;;2.80;2.60;;;;;;;23.00;59.58;97501.34;5029445;28;20631;-70
2022/08/20 05:33:57;;;;;;;3.07;2.77;;;;;;;23.00;59.77;97501.34;5037677;28;20485;-70
2022/08/20 05:36:23;;;;;;;3.80;2.77;;;;;;;23.04;59.76;97500.91;5038373;28;20537;-71
2022/08/20 05:38:49;;;;;;;2.97;2.67;;;;;;;23.04;59.63;97495.56;5030458;28;20235;-70
2022/08/20 05:41:14;;;;;;;4.80;2.90;;;;;;;23.02;59.75;97493.13;5029248;28;20218;-69
2022/08/20 05:43:40;;;;;;;5.50;2.77;;;;;;;23.05;59.75;97500.69;5030931;28;20442;-71
2022/08/20 05:46:05;;;;;;;3.33;3.03;;;;;;;23.00;59.87;97500.56;5037305;28;20187;-70
2022/08/20 05:48:34;;;;;;;2.90;2.70;;;;;;;23.02;60.06;97506.50;5036072;28;20187;-71
2022/08/20 05:50:59;;;;;;;3.00;2.80;;;;;;;23.03;60.02;97516.16;5029335;28;20559;-70
2022/08/20 05:53:25;;;;;;;2.87;2.67;;;;;;;22.97;60.33;97509.84;5030488;28;20450;-71
2022/08/20 05:55:51;;;;;;;3.30;2.90;;;;;;;22.99;60.22;97512.28;5028477;28;20195;-70
2022/08/20 05:58:21;;;;;;;3.33;2.63;;;;;;;23.02;60.23;97517.97;5029763;28;20274;-71
2022/08/20 06:00:47;;;;;;;3.80;3.47;;;;;;;23.07;60.08;97509.28;5029539;28;20466;-69
2022/08/20 06:05:57;;;;;;;3.40;3.20;;;;;;;23.22;59.88;97505.44;5042688;28;20480;-70
2022/08/20 06:08:23;;;;;;;4.93;3.40;;;;;;;23.28;59.86;97499.19;5032398;28;20426;-70
2022/08/20 06:10:49;;;;;;;3.73;3.40;;;;;;;23.29;59.63;97500.81;5000866;28;20651;-70
2022/08/20 06:13:14;;;;;;;2.70;2.47;;;;;;;23.36;59.71;97501.53;5033687;28;20488;-70
2022/08/20 06:15:40;;;;;;;2.80;2.60;;;;;;;23.45;59.45;97510.06;5034197;28;20183;-69
2022/08/20 06:18:09;;;;;;;3.47;3.13;;;;;;;23.53;59.24;97500.88;5035497;28;20183;-70
2022/08/20 06:20:36;;;;;;;3.60;3.30;;;;;;;23.56;58.88;97503.91;5037173;28;20266;-70
2022/08/20 06:23:04;;;;;;;3.33;3.03;;;;;;;23.63;58.80;97507.28;5037510;28;20507;-70
2022/08/20 06:25:29;;;;;;;2.87;2.67;;;;;;;23.69;58.50;97516.25;5024026;28;20434;-70
2022/08/20 06:27:55;;;;;;;3.43;2.67;;;;;;;23.70;58.23;97512.53;5038685;28;20436;-71
2022/08/20 06:30:21;;;;;;;4.87;3.20;;;;;;;23.70;58.39;97517.91;5041476;28;20693;-70
2022/08/20 06:32:46;;;;;;;3.30;3.00;;;;;;;23.70;58.50;97517.91;5033958;28;20773;-70
2022/08/20 06:35:12;;;;;;;3.43;3.23;;;;;;;23.66;58.30;97514.06;5032599;28;20187;-71
2022/08/20 06:37:39;;;;;;;3.07;2.87;;;;;;;23.69;58.54;97516.25;5033148;28;20278;-70
2022/08/20 06:40:15;;;;;;;4.10;2.90;;;;;;;23.72;58.56;97517.69;5032442;28;20243;-70
2022/08/20 06:42:42;;;;;;;5.17;3.03;;;;;;;23.75;58.36;97520.72;5031865;28;20965;-70
2022/08/20 06:45:11;;;;;;;3.10;2.90;;;;;;;23.78;58.33;97522.94;5039541;28;20462;-70
2022/08/20 06:47:42;;;;;;;2.93;2.73;;;;;;;23.81;58.40;97527.00;5031443;28;20461;-71
2022/08/20 06:50:15;;;;;;;7.07;3.10;;;;;;;23.84;58.47;97520.38;5025370;28;20473;-68
2022/08/20 06:52:41;;;;;;;3.33;3.03;;;;;;;23.86;58.44;97527.13;5033571;28;20438;-71
2022/08/20 06:55:09;;;;;;;3.30;3.00;;;;;;;23.87;57.98;97517.22;5032175;28;20441;-70
2022/08/20 06:57:36;;;;;;;4.43;2.80;;;;;;;23.87;58.09;97517.22;5032435;28;20191;-70
2022/08/20 07:00:05;;;;;;;4.13;3.03;;;;;;;23.89;57.86;97520.50;5032303;28;20501;-70
2022/08/20 07:02:30;;;;;;;3.00;2.80;;;;;;;23.89;58.06;97520.50;5028522;28;20524;-70
2022/08/20 07:04:56;;;;;;;3.30;3.00;;;;;;;23.87;57.75;97522.59;5028387;28;20517;-70
2022/08/20 07:07:21;;;;;;;4.90;2.83;;;;;;;23.87;58.12;97518.06;5040768;28;20191;-71
2022/08/20 07:09:47;;;;;;;3.00;2.70;;;;;;;23.85;58.18;97520.16;5040323;28;20191;-70
2022/08/20 07:12:13;;;;;;;3.07;2.87;;;;;;;23.85;58.49;97520.16;5033235;28;20195;-71
2022/08/20 07:14:38;;;;;;;5.20;3.00;;;;;;;23.88;58.86;97524.22;5032835;28;20208;-70
2022/08/20 07:17:05;;;;;;;3.23;2.93;;;;;;;23.91;58.88;97526.44;5029660;28;20485;-71
2022/08/20 07:19:31;;;;;;;4.70;3.00;;;;;;;23.88;58.62;97522.34;5040597;28;20748;-70
2022/08/20 07:21:57;;;;;;;3.67;2.93;;;;;;;23.92;58.24;97528.88;5038920;28;20926;-71
2022/08/20 07:24:22;;;;;;;3.27;2.90;;;;;;;23.95;57.89;97527.59;5029617;28;20454;-70
2022/08/20 07:26:50;;;;;;;4.13;2.87;;;;;;;23.99;57.93;97526.13;5023600;28;20322;-70
2022/08/20 07:29:17;;;;;;;3.40;3.10;;;;;;;24.06;57.96;97531.38;5032970;28;20191;-70
2022/08/20 07:34:26;;;;;;;3.47;3.17;;;;;;;24.16;57.61;97530.81;5049180;28;20968;-70
2022/08/20 07:36:51;;;;;;;3.37;3.17;;;;;;;24.20;57.09;97526.59;5039562;28;20473;-72
2022/08/20 07:39:17;;;;;;;3.20;2.93;;;;;;;24.24;57.06;97533.13;5031950;28;20212;-71
2022/08/20 07:41:42;;;;;;;2.93;2.63;;;;;;;24.30;57.09;97537.56;5032053;28;20202;-69
2022/08/20 07:44:08;;;;;;;3.00;2.50;;;;;;;24.36;56.94;97539.28;5031421;28;20215;-70
2022/08/20 07:46:33;;;;;;;3.17;2.97;;;;;;;24.41;56.93;97548.50;5038610;28;20207;-71
2022/08/20 07:48:59;;;;;;;3.57;2.80;;;;;;;24.46;56.76;97544.06;5032824;28;20188;-71
2022/08/20 07:51:24;;;;;;;5.97;3.07;;;;;;;24.51;56.70;97551.41;5031001;28;20184;-72
2022/08/20 07:53:50;;;;;;;4.30;3.07;;;;;;;24.58;56.40;97548.59;5032492;28;20211;-70
2022/08/20 07:56:18;;;;;;;3.63;2.73;;;;;;;24.63;55.98;97546.84;5032898;28;20192;-71
2022/08/20 07:58:48;;;;;;;4.00;3.07;;;;;;;24.69;55.64;97545.94;5036073;28;20545;-71
2022/08/20 08:01:18;;;;;;;5.73;2.83;;;;;;;24.76;55.75;97545.78;5038824;28;20430;-70
2022/08/20 08:03:44;;;;;;;3.00;2.80;;;;;;;24.84;55.69;97553.50;5032202;28;20454;-71
2022/08/20 08:06:10;;;;;;;2.83;2.63;;;;;;;24.93;55.58;97545.06;5032369;28;20448;-69
2022/08/20 08:08:36;;;;;;;4.83;3.20;;;;;;;25.02;55.30;97550.88;5031513;28;20176;-72
2022/08/20 08:11:02;;;;;;;2.90;2.70;;;;;;;25.09;55.26;97549.69;5031005;28;20250;-71
2022/08/20 08:13:34;;;;;;;2.93;2.70;;;;;;;25.19;55.24;97551.78;5030368;28;20474;-72
2022/08/20 08:16:00;;;;;;;3.00;2.80;;;;;;;25.29;54.37;97557.31;5038377;28;20948;-72
2022/08/20 08:18:30;;;;;;;3.00;2.80;;;;;;;25.38;54.38;97546.19;5030394;28;20545;-71
2022/08/20 08:20:56;;;;;;;3.30;3.00;;;;;;;25.49;54.11;97542.69;5038791;28;20936;-71
2022/08/20 08:23:23;;;;;;;2.93;2.73;;;;;;;25.59;52.76;97534.81;5032661;28;20451;-71
2022/08/20 08:25:51;;;;;;;3.70;2.60;;;;;;;25.70;52.27;97535.00;5030749;28;20430;-72
2022/08/20 08:28:18;;;;;;;2.80;2.40;;;;;;;25.84;52.53;97540.88;5029407;28;20496;-72
2022/08/20 08:30:46;;;;;;;3.03;2.50;;;;;;;26.03;51.83;97531.50;5037933;28;20525;-70
2022/08/20 08:33:26;;;;;;;3.00;2.77;;;;;;;26.29;51.68;97534.59;5047483;28;20489;-71
2022/08/20 08:35:56;;;;;;;2.40;2.20;;;;;;;26.50;50.37;97535.72;5031473;28;20434;-71
2022/08/20 08:38:22;;;;;;;2.33;2.10;;;;;;;26.68;49.50;97531.91;5037044;28;20792;-71
2022/08/20 08:40:53;;;;;;;3.20;2.60;;;;;;;26.73;48.43;97523.09;5031698;28;20862;-71
2022/08/20 08:43:20;;;;;;;2.53;2.40;;;;;;;26.75;48.34;97529.06;5030289;28;20457;-70
2022/08/20 08:45:56;;;;;;;3.07;2.87;;;;;;;26.77;48.62;97529.63;5036654;28;20434;-71
2022/08/20 08:48:26;;;;;;;4.13;2.80;;;;;;;26.92;48.67;97528.22;5030687;28;20453;-72
2022/08/20 08:50:52;;;;;;;2.80;2.50;;;;;;;26.98;48.53;97529.88;5030261;28;20528;-71
2022/08/20 08:53:21;;;;;;;3.00;2.80;;;;;;;27.03;48.16;97538.03;5031163;28;20841;-71
2022/08/20 08:55:47;;;;;;;3.53;2.67;;;;;;;27.13;48.02;97532.75;5030274;28;20194;-71
2022/08/20 08:58:12;;;;;;;2.33;2.13;;;;;;;27.25;47.29;97539.88;5030259;28;20434;-71
2022/08/20 09:00:38;;;;;;;2.50;2.27;;;;;;;27.33;47.28;97531.38;5031491;28;20194;-70
2022/08/20 09:03:18;;;;;;;2.80;2.20;;;;;;;27.37;46.73;97535.16;5034961;28;20219;-71
2022/08/20 09:05:48;;;;;;;2.40;2.20;;;;;;;27.37;46.82;97532.47;5045891;28;20194;-71
2022/08/20 09:08:18;;;;;;;2.93;2.50;;;;;;;27.33;46.45;97528.69;5027162;28;20434;-71
2022/08/20 09:10:44;;;;;;;2.70;2.50;;;;;;;27.45;46.56;97523.16;5027023;28;20434;-72
2022/08/20 09:13:10;;;;;;;2.60;2.40;;;;;;;27.40;46.41;97526.59;5029506;28;20614;-71
2022/08/20 09:15:36;;;;;;;2.53;2.33;;;;;;;27.39;46.46;97519.59;5029226;28;20513;-71
2022/08/20 09:18:01;;;;;;;2.87;2.67;;;;;;;27.35;46.28;97531.13;5030740;28;20266;-71
2022/08/20 09:20:27;;;;;;;2.37;2.00;;;;;;;27.29;46.29;97530.25;5033018;28;20206;-70
2022/08/20 09:22:52;;;;;;;2.50;2.30;;;;;;;27.19;46.70;97530.94;5036325;28;20211;-71
2022/08/20 09:25:18;;;;;;;2.43;2.23;;;;;;;27.07;46.99;97528.41;5030500;28;20187;-70
2022/08/20 09:27:44;;;;;;;2.67;2.20;;;;;;;26.98;47.46;97524.50;5030333;28;20192;-70
2022/08/20 09:30:10;;;;;;;2.83;2.50;;;;;;;26.95;47.42;97527.72;4988683;28;20498;-71
2022/08/20 09:32:35;;;;;;;2.20;2.10;;;;;;;26.94;47.34;97534.16;5031052;28;20208;-71
2022/08/20 09:35:01;;;;;;;1.90;1.80;;;;;;;26.91;47.21;97530.09;5031147;28;20438;-72
2022/08/20 09:37:29;;;;;;;1.97;1.60;;;;;;;26.92;46.26;97530.91;5029799;28;20207;-72
2022/08/20 09:39:55;;;;;;;1.50;1.40;;;;;;;26.97;45.83;97533.63;5024838;28;20215;-70
2022/08/20 09:42:38;;;;;;;1.90;1.43;;;;;;;27.06;45.88;97534.84;5031901;28;20430;-71
2022/08/20 09:45:05;;;;;;;1.83;1.50;;;;;;;27.14;45.62;97526.31;5044168;28;20433;-73
2022/08/20 09:47:30;;;;;;;2.03;1.20;;;;;;;27.32;45.58;97524.38;5030284;28;20425;-71
2022/08/20 09:49:56;;;;;;;1.70;1.50;;;;;;;27.57;45.04;97513.06;5031080;28;20906;-71
2022/08/20 09:52:27;;;;;;;2.07;1.87;;;;;;;27.75;44.74;97508.38;5030496;28;20211;-71
2022/08/20 09:54:58;;;;;;;1.40;1.30;;;;;;;28.15;44.38;97511.66;5029679;28;20195;-72
2022/08/20 09:57:24;;;;;;;1.60;1.50;;;;;;;28.57;43.15;97507.31;5028281;28;21274;-69
2022/08/20 09:59:58;;;;;;;2.70;1.80;;;;;;;28.67;42.76;97510.03;5037781;28;20462;-72
2022/08/20 10:02:24;;;;;;;1.43;1.33;;;;;;;28.79;42.38;97517.97;5029393;28;20534;-71
2022/08/20 10:04:49;;;;;;;1.50;1.30;;;;;;;28.66;42.58;97513.84;5029586;28;20851;-71
2022/08/20 10:07:15;;;;;;;1.50;1.30;;;;;;;28.57;42.35;97527.00;5027118;28;20271;-71
2022/08/20 10:09:40;;;;;;;5.00;1.40;;;;;;;28.49;42.69;97524.78;5024197;28;20184;-70
2022/08/20 10:12:06;;;;;;;1.53;1.30;;;;;;;28.53;42.76;97517.81;5029587;28;20559;-71
2022/08/20 10:14:32;;;;;;;1.60;1.30;;;;;;;28.54;42.74;97519.44;5046848;28;20188;-71
2022/08/20 10:16:58;;;;;;;3.10;1.70;;;;;;;28.48;42.46;97515.91;5029964;28;20180;-71
2022/08/20 10:19:24;;;;;;;3.73;1.53;;;;;;;28.42;42.70;97508.03;5030094;28;20237;-71
2022/08/20 10:21:51;;;;;;;1.50;1.40;;;;;;;28.38;42.83;97523.94;5037648;28;21035;-70
2022/08/20 10:24:17;;;;;;;2.60;1.67;;;;;;;28.36;42.96;97520.69;5030489;28;20620;-70
2022/08/20 10:26:43;;;;;;;1.90;1.80;;;;;;;28.28;43.58;97530.06;5011533;28;20464;-70
2022/08/20 10:29:08;;;;;;;1.97;1.60;;;;;;;28.13;43.94;97528.09;5039351;28;20425;-71
2022/08/20 10:31:34;;;;;;;2.60;1.53;;;;;;;28.04;44.44;97526.88;5038298;28;20717;-70
2022/08/20 10:33:59;;;;;;;1.53;1.40;;;;;;;27.95;44.51;97521.19;5030381;28;20208;-70
2022/08/20 10:36:25;;;;;;;1.50;1.40;;;;;;;27.88;45.00;97525.97;5029603;28;20226;-71
2022/08/20 10:38:50;;;;;;;1.10;0.80;;;;;;;27.70;45.23;97537.94;5030427;28;20257;-70
2022/08/20 10:41:18;;;;;;;1.00;0.60;;;;;;;27.60;45.01;97538.63;5030176;28;20718;-71
2022/08/20 10:43:44;;;;;;;1.10;0.70;;;;;;;27.52;44.49;97539.09;5013017;28;20203;-69
2022/08/20 10:46:09;;;;;;;0.90;0.60;;;;;;;27.31;45.16;97536.19;5036876;28;20490;-71
2022/08/20 10:48:35;;;;;;;0.90;0.53;;;;;;;27.22;45.47;97535.03;5033938;28;20179;-71
2022/08/20 10:51:00;;;;;;;1.40;1.10;;;;;;;26.93;46.35;97535.22;5036901;28;20195;-70
2022/08/20 10:53:26;;;;;;;1.03;0.93;;;;;;;26.86;46.75;97529.22;5032551;28;20211;-71
2022/08/20 10:55:53;;;;;;;1.43;0.83;;;;;;;26.85;47.06;97532.94;5012330;28;20188;-70
2022/08/20 10:58:18;;;;;;;1.10;0.60;;;;;;;26.93;47.80;97532.53;5031504;28;20196;-71
2022/08/20 11:00:44;;;;;;;1.47;0.70;;;;;;;27.40;46.82;97540.03;5032767;28;20429;-70
2022/08/20 11:03:10;;;;;;;1.97;0.63;;;;;;;28.02;45.25;97521.78;5032248;28;20262;-71
2022/08/20 11:05:35;;;;;;;1.77;0.60;;;;;;;28.33;43.62;97527.41;5032444;28;20475;-71
2022/08/20 11:08:03;;;;;;;0.90;0.57;;;;;;;28.54;42.73;97532.13;5029920;28;20194;-71
2022/08/20 11:10:32;;;;;;;1.00;0.70;;;;;;;28.70;42.22;97533.78;5033617;28;20259;-71
2022/08/20 11:12:57;;;;;;;1.00;0.60;;;;;;;28.67;40.95;97532.44;5033387;28;20454;-72
2022/08/20 11:15:23;;;;;;;0.93;0.60;;;;;;;28.56;41.09;97538.84;5041734;28;20488;-69
2022/08/20 11:17:48;;;;;;;2.27;0.60;;;;;;;28.29;41.96;97547.06;5031456;28;20194;-71
2022/08/20 11:20:15;;;;;;;1.03;0.60;;;;;;;28.14;42.33;97551.25;5031558;28;20667;-72
2022/08/20 11:22:41;;;;;;;1.00;0.60;;;;;;;27.95;42.54;97558.88;5040046;28;20216;-71
2022/08/20 11:25:08;;;;;;;1.30;0.60;;;;;;;27.73;43.31;97559.75;5015680;28;20445;-70
2022/08/20 11:27:37;;;;;;;1.30;0.60;;;;;;;27.51;44.32;97557.16;5031973;28;20190;-71
2022/08/20 11:30:04;;;;;;;1.33;0.60;;;;;;;27.36;45.21;97563.13;5033326;28;20422;-71
2022/08/20 11:32:29;;;;;;;1.17;0.70;;;;;;;27.22;47.02;97559.22;5025087;28;21020;-71
2022/08/20 11:34:55;;;;;;;1.00;0.67;;;;;;;27.05;47.04;97552.03;5033406;28;20433;-71
2022/08/20 11:37:22;;;;;;;1.30;0.70;;;;;;;26.87;48.02;97555.84;5040378;28;20724;-72
2022/08/20 11:39:48;;;;;;;1.37;0.70;;;;;;;26.75;49.80;97557.81;5033153;28;20216;-71
2022/08/20 11:42:13;;;;;;;1.30;0.70;;;;;;;26.70;50.14;97550.50;5041037;28;20931;-71